sensor_id;sensor_type;location;lat;lon;timestamp;pressure;altitude;pressure_sealevel;temperature;humidity
71915;BME280;60387;49.994;14.660;2023-08-07T00:01:56;96607.22;;;18.14;59.19
71915;BME280;60387;49.994;14.660;2023-08-07T00:04:29;96613.06;;;18.12;59.51
71915;BME280;60387;49.994;14.660;2023-08-07T00:07:02;96607.19;;;18.10;59.81
71915;BME280;60387;49.994;14.660;2023-08-07T00:09:36;96610.66;;;18.04;59.67
71915;BME280;60387;49.994;14.660;2023-08-07T00:12:09;96611.38;;;18.01;59.92
71915;BME280;60387;49.994;14.660;2023-08-07T00:14:42;96614.56;;;18.03;60.03
71915;BME280;60387;49.994;14.660;2023-08-07T00:17:16;96609.78;;;17.96;60.91
71915;BME280;60387;49.994;14.660;2023-08-07T00:19:49;96610.53;;;17.93;60.83
71915;BME280;60387;49.994;14.660;2023-08-07T00:22:23;96616.38;;;17.92;61.14
71915;BME280;60387;49.994;14.660;2023-08-07T00:24:56;96612.03;;;17.87;60.75
71915;BME280;60387;49.994;14.660;2023-08-07T00:27:29;96608.41;;;17.80;61.20
71915;BME280;60387;49.994;14.660;2023-08-07T00:30:03;96613.06;;;17.76;60.99
71915;BME280;60387;49.994;14.660;2023-08-07T00:32:36;96614.25;;;17.78;60.95
71915;BME280;60387;49.994;14.660;2023-08-07T00:35:09;96605.63;;;17.76;60.86
71915;BME280;60387;49.994;14.660;2023-08-07T00:37:42;96598.94;;;17.74;61.19
71915;BME280;60387;49.994;14.660;2023-08-07T00:40:17;96593.06;;;17.72;61.39
71915;BME280;60387;49.994;14.660;2023-08-07T00:42:50;96610.72;;;17.74;61.37
71915;BME280;60387;49.994;14.660;2023-08-07T00:45:23;96604.03;;;17.72;61.10
71915;BME280;60387;49.994;14.660;2023-08-07T00:47:56;96611.47;;;17.75;61.45
71915;BME280;60387;49.994;14.660;2023-08-07T00:50:30;96611.06;;;17.73;61.22
71915;BME280;60387;49.994;14.660;2023-08-07T00:53:04;96606.66;;;17.65;61.66
71915;BME280;60387;49.994;14.660;2023-08-07T00:55:37;96608.69;;;17.71;61.18
71915;BME280;60387;49.994;14.660;2023-08-07T00:58:11;96609.50;;;17.72;61.11
71915;BME280;60387;49.994;14.660;2023-08-07T01:00:45;96613.41;;;17.71;61.24
71915;BME280;60387;49.994;14.660;2023-08-07T01:03:18;96616.16;;;17.71;61.22
71915;BME280;60387;49.994;14.660;2023-08-07T01:05:51;96613.78;;;17.69;61.41
71915;BME280;60387;49.994;14.660;2023-08-07T01:08:25;96612.59;;;17.70;61.28
71915;BME280;60387;49.994;14.660;2023-08-07T01:14:18;96618.88;;;17.71;61.04
71915;BME280;60387;49.994;14.660;2023-08-07T01:17:10;96628.25;;;17.70;61.43
71915;BME280;60387;49.994;14.660;2023-08-07T01:19:44;96628.31;;;17.73;61.19
71915;BME280;60387;49.994;14.660;2023-08-07T01:22:18;96631.41;;;17.72;61.25
71915;BME280;60387;49.994;14.660;2023-08-07T01:24:52;96619.66;;;17.71;61.34
71915;BME280;60387;49.994;14.660;2023-08-07T01:27:36;96635.31;;;17.71;61.37
71915;BME280;60387;49.994;14.660;2023-08-07T01:33:12;96643.63;;;17.78;61.28
71915;BME280;60387;49.994;14.660;2023-08-07T01:35:52;96643.19;;;17.76;61.26
71915;BME280;60387;49.994;14.660;2023-08-07T01:38:26;96639.28;;;17.73;61.12
71915;BME280;60387;49.994;14.660;2023-08-07T01:41:01;96647.09;;;17.75;61.37
71915;BME280;60387;49.994;14.660;2023-08-07T01:43:35;96638.50;;;17.76;61.25
71915;BME280;60387;49.994;14.660;2023-08-07T01:46:10;96637.75;;;17.79;61.00
71915;BME280;60387;49.994;14.660;2023-08-07T01:48:44;96648.66;;;17.76;60.99
71915;BME280;60387;49.994;14.660;2023-08-07T01:51:17;96640.09;;;17.77;61.30
71915;BME280;60387;49.994;14.660;2023-08-07T01:53:50;96649.09;;;17.78;61.04
71915;BME280;60387;49.994;14.660;2023-08-07T01:56:23;96647.94;;;17.79;61.05
71915;BME280;60387;49.994;14.660;2023-08-07T01:58:57;96638.50;;;17.76;60.91
71915;BME280;60387;49.994;14.660;2023-08-07T02:01:30;96635.41;;;17.78;61.12
71915;BME280;60387;49.994;14.660;2023-08-07T02:04:03;96640.88;;;17.78;61.05
71915;BME280;60387;49.994;14.660;2023-08-07T02:06:37;96648.34;;;17.81;60.94
71915;BME280;60387;49.994;14.660;2023-08-07T02:09:10;96641.69;;;17.82;61.07
71915;BME280;60387;49.994;14.660;2023-08-07T02:11:43;96640.94;;;17.85;60.71
71915;BME280;60387;49.994;14.660;2023-08-07T02:14:16;96638.97;;;17.82;61.09
71915;BME280;60387;49.994;14.660;2023-08-07T02:16:50;96632.66;;;17.78;60.86
71915;BME280;60387;49.994;14.660;2023-08-07T02:19:23;96642.06;;;17.77;60.83
71915;BME280;60387;49.994;14.660;2023-08-07T02:21:56;96644.81;;;17.80;61.14
71915;BME280;60387;49.994;14.660;2023-08-07T02:24:29;96646.78;;;17.80;61.18
71915;BME280;60387;49.994;14.660;2023-08-07T02:27:03;96643.19;;;17.76;61.23
71915;BME280;60387;49.994;14.660;2023-08-07T02:29:36;96638.06;;;17.71;61.31
71915;BME280;60387;49.994;14.660;2023-08-07T02:32:09;96630.16;;;17.66;61.54
71915;BME280;60387;49.994;14.660;2023-08-07T02:34:44;96639.22;;;17.70;61.83
71915;BME280;60387;49.994;14.660;2023-08-07T02:37:17;96640.78;;;17.71;61.89
71915;BME280;60387;49.994;14.660;2023-08-07T02:39:51;96642.28;;;17.65;61.94
71915;BME280;60387;49.994;14.660;2023-08-07T02:42:24;96650.13;;;17.66;61.80
71915;BME280;60387;49.994;14.660;2023-08-07T02:44:57;96645.00;;;17.65;62.23
71915;BME280;60387;49.994;14.660;2023-08-07T02:47:30;96644.19;;;17.61;62.24
71915;BME280;60387;49.994;14.660;2023-08-07T02:50:04;96648.47;;;17.58;62.55
71915;BME280;60387;49.994;14.660;2023-08-07T02:52:37;96648.00;;;17.53;62.25
71915;BME280;60387;49.994;14.660;2023-08-07T02:55:11;96647.59;;;17.54;62.71
71915;BME280;60387;49.994;14.660;2023-08-07T02:57:44;96647.16;;;17.49;62.56
71915;BME280;60387;49.994;14.660;2023-08-07T03:00:17;96651.91;;;17.52;62.71
71915;BME280;60387;49.994;14.660;2023-08-07T03:02:50;96653.78;;;17.48;62.60
71915;BME280;60387;49.994;14.660;2023-08-07T03:05:24;96655.75;;;17.47;62.76
71915;BME280;60387;49.994;14.660;2023-08-07T03:07:57;96673.75;;;17.48;62.59
71915;BME280;60387;49.994;14.660;2023-08-07T03:10:30;96660.44;;;17.47;62.91
71915;BME280;60387;49.994;14.660;2023-08-07T03:13:04;96662.38;;;17.46;62.70
71915;BME280;60387;49.994;14.660;2023-08-07T03:15:37;96664.31;;;17.46;62.64
71915;BME280;60387;49.994;14.660;2023-08-07T03:18:10;96664.75;;;17.48;62.78
71915;BME280;60387;49.994;14.660;2023-08-07T03:20:44;96664.69;;;17.44;62.84
71915;BME280;60387;49.994;14.660;2023-08-07T03:23:17;96663.91;;;17.44;62.78
71915;BME280;60387;49.994;14.660;2023-08-07T03:25:50;96662.69;;;17.41;62.75
71915;BME280;60387;49.994;14.660;2023-08-07T03:28:24;96663.88;;;17.40;63.35
71915;BME280;60387;49.994;14.660;2023-08-07T03:30:57;96670.06;;;17.37;63.17
71915;BME280;60387;49.994;14.660;2023-08-07T03:33:30;96673.19;;;17.36;63.21
71915;BME280;60387;49.994;14.660;2023-08-07T03:36:04;96673.09;;;17.32;63.04
71915;BME280;60387;49.994;14.660;2023-08-07T03:38:37;96675.44;;;17.34;63.17
71915;BME280;60387;49.994;14.660;2023-08-07T03:41:11;96680.16;;;17.33;63.00
71915;BME280;60387;49.994;14.660;2023-08-07T03:43:44;96678.94;;;17.31;62.97
71915;BME280;60387;49.994;14.660;2023-08-07T03:46:18;96684.81;;;17.33;63.30
71915;BME280;60387;49.994;14.660;2023-08-07T03:48:51;96678.13;;;17.27;63.13
71915;BME280;60387;49.994;14.660;2023-08-07T03:51:24;96685.56;;;17.30;63.22
71915;BME280;60387;49.994;14.660;2023-08-07T03:53:58;96691.53;;;17.35;62.87
71915;BME280;60387;49.994;14.660;2023-08-07T03:56:31;96688.72;;;17.32;63.04
71915;BME280;60387;49.994;14.660;2023-08-07T03:59:04;96686.00;;;17.32;63.41
71915;BME280;60387;49.994;14.660;2023-08-07T04:01:38;96689.47;;;17.29;63.24
71915;BME280;60387;49.994;14.660;2023-08-07T04:04:11;96689.47;;;17.29;63.17
71915;BME280;60387;49.994;14.660;2023-08-07T04:06:44;96691.84;;;17.30;63.33
71915;BME280;60387;49.994;14.660;2023-08-07T04:09:17;96699.25;;;17.30;63.68
71915;BME280;60387;49.994;14.660;2023-08-07T04:11:51;96684.75;;;17.26;63.03
71915;BME280;60387;49.994;14.660;2023-08-07T04:14:24;96686.63;;;17.22;63.14
71915;BME280;60387;49.994;14.660;2023-08-07T04:16:57;96696.81;;;17.25;63.13
71915;BME280;60387;49.994;14.660;2023-08-07T04:19:30;96701.59;;;17.28;63.19
71915;BME280;60387;49.994;14.660;2023-08-07T04:22:04;96698.47;;;17.29;63.23
71915;BME280;60387;49.994;14.660;2023-08-07T04:24:37;96694.53;;;17.27;63.21
71915;BME280;60387;49.994;14.660;2023-08-07T04:27:10;96706.66;;;17.26;63.26
71915;BME280;60387;49.994;14.660;2023-08-07T04:29:44;96703.53;;;17.27;62.92
71915;BME280;60387;49.994;14.660;2023-08-07T04:32:17;96707.06;;;17.28;63.36
71915;BME280;60387;49.994;14.660;2023-08-07T04:34:50;96707.06;;;17.28;63.34
71915;BME280;60387;49.994;14.660;2023-08-07T04:37:23;96705.09;;;17.28;63.40
71915;BME280;60387;49.994;14.660;2023-08-07T04:39:57;96710.97;;;17.27;63.44
71915;BME280;60387;49.994;14.660;2023-08-07T04:42:30;96718.00;;;17.28;63.19
71915;BME280;60387;49.994;14.660;2023-08-07T04:45:04;96715.22;;;17.24;63.40
71915;BME280;60387;49.994;14.660;2023-08-07T04:47:37;96705.44;;;17.23;63.56
71915;BME280;60387;49.994;14.660;2023-08-07T04:50:10;96707.38;;;17.23;63.50
71915;BME280;60387;49.994;14.660;2023-08-07T04:52:43;96719.16;;;17.27;63.91
71915;BME280;60387;49.994;14.660;2023-08-07T04:55:17;96714.41;;;17.24;63.46
71915;BME280;60387;49.994;14.660;2023-08-07T04:57:50;96716.38;;;17.23;63.39
71915;BME280;60387;49.994;14.660;2023-08-07T05:00:24;96703.41;;;17.20;63.48
71915;BME280;60387;49.994;14.660;2023-08-07T05:02:58;96717.22;;;17.27;63.46
71915;BME280;60387;49.994;14.660;2023-08-07T05:05:31;96726.63;;;17.30;63.59
71915;BME280;60387;49.994;14.660;2023-08-07T05:08:05;96723.53;;;17.31;63.59
71915;BME280;60387;49.994;14.660;2023-08-07T05:10:38;96714.16;;;17.32;63.53
71915;BME280;60387;49.994;14.660;2023-08-07T05:13:11;96721.56;;;17.32;63.26
71915;BME280;60387;49.994;14.660;2023-08-07T05:15:47;96726.69;;;17.33;63.58
71915;BME280;60387;49.994;14.660;2023-08-07T05:18:20;96716.84;;;17.29;63.50
71915;BME280;60387;49.994;14.660;2023-08-07T05:20:54;96719.94;;;17.27;63.49
71915;BME280;60387;49.994;14.660;2023-08-07T05:23:27;96738.00;;;17.32;63.31
71915;BME280;60387;49.994;14.660;2023-08-07T05:26:00;96741.97;;;17.34;63.41
71915;BME280;60387;49.994;14.660;2023-08-07T05:28:33;96738.38;;;17.30;63.43
71915;BME280;60387;49.994;14.660;2023-08-07T05:31:07;96745.19;;;17.40;63.59
71915;BME280;60387;49.994;14.660;2023-08-07T05:33:40;96742.09;;;17.41;63.43
71915;BME280;60387;49.994;14.660;2023-08-07T05:36:13;96741.28;;;17.41;63.31
71915;BME280;60387;49.994;14.660;2023-08-07T05:38:46;96751.94;;;17.46;63.11
71915;BME280;60387;49.994;14.660;2023-08-07T05:41:20;96750.78;;;17.47;63.20
71915;BME280;60387;49.994;14.660;2023-08-07T05:43:53;96755.47;;;17.46;63.86
71915;BME280;60387;49.994;14.660;2023-08-07T05:46:26;96755.44;;;17.43;63.79
71915;BME280;60387;49.994;14.660;2023-08-07T05:49:00;96771.88;;;17.46;63.28
71915;BME280;60387;49.994;14.660;2023-08-07T05:51:33;96754.69;;;17.46;63.21
71915;BME280;60387;49.994;14.660;2023-08-07T05:54:06;96762.16;;;17.49;63.44
71915;BME280;60387;49.994;14.660;2023-08-07T05:56:41;96764.94;;;17.52;63.35
71915;BME280;60387;49.994;14.660;2023-08-07T05:59:14;96779.84;;;17.55;63.58
71915;BME280;60387;49.994;14.660;2023-08-07T06:01:47;96780.66;;;17.55;63.64
71915;BME280;60387;49.994;14.660;2023-08-07T06:04:21;96779.09;;;17.58;63.89
71915;BME280;60387;49.994;14.660;2023-08-07T06:06:54;96783.88;;;17.61;63.58
71915;BME280;60387;49.994;14.660;2023-08-07T06:09:28;96783.88;;;17.61;63.46
71915;BME280;60387;49.994;14.660;2023-08-07T06:12:01;96787.78;;;17.63;63.44
71915;BME280;60387;49.994;14.660;2023-08-07T06:14:34;96799.25;;;17.69;63.64
71915;BME280;60387;49.994;14.660;2023-08-07T06:17:07;96805.16;;;17.71;64.30
71915;BME280;60387;49.994;14.660;2023-08-07T06:19:41;96791.03;;;17.69;63.76
71915;BME280;60387;49.994;14.660;2023-08-07T06:22:14;96809.16;;;17.77;63.74
71915;BME280;60387;49.994;14.660;2023-08-07T06:24:47;96796.22;;;17.77;63.73
71915;BME280;60387;49.994;14.660;2023-08-07T06:27:21;96808.56;;;17.90;63.71
71915;BME280;60387;49.994;14.660;2023-08-07T06:29:54;96809.34;;;17.91;63.46
71915;BME280;60387;49.994;14.660;2023-08-07T06:32:28;96802.81;;;17.99;63.33
71915;BME280;60387;49.994;14.660;2023-08-07T06:35:01;96814.19;;;18.01;63.45
71915;BME280;60387;49.994;14.660;2023-08-07T06:37:34;96813.81;;;18.02;63.15
71915;BME280;60387;49.994;14.660;2023-08-07T06:40:08;96811.50;;;18.04;63.34
71915;BME280;60387;49.994;14.660;2023-08-07T06:42:41;96816.66;;;18.09;63.23
71915;BME280;60387;49.994;14.660;2023-08-07T06:45:14;96824.59;;;18.18;63.21
71915;BME280;60387;49.994;14.660;2023-08-07T06:47:48;96812.47;;;18.19;62.86
71915;BME280;60387;49.994;14.660;2023-08-07T06:50:21;96818.44;;;18.24;62.99
71915;BME280;60387;49.994;14.660;2023-08-07T06:52:54;96832.97;;;18.28;63.00
71915;BME280;60387;49.994;14.660;2023-08-07T06:55:28;96838.13;;;18.30;62.93
71915;BME280;60387;49.994;14.660;2023-08-07T06:58:01;96838.91;;;18.30;62.67
71915;BME280;60387;49.994;14.660;2023-08-07T07:00:37;96825.53;;;18.29;62.86
71915;BME280;60387;49.994;14.660;2023-08-07T07:03:10;96834.56;;;18.29;62.76
71915;BME280;60387;49.994;14.660;2023-08-07T07:05:44;96824.75;;;18.28;62.48
71915;BME280;60387;49.994;14.660;2023-08-07T07:08:17;96844.56;;;18.44;62.50
71915;BME280;60387;49.994;14.660;2023-08-07T07:10:50;96854.84;;;18.51;62.51
71915;BME280;60387;49.994;14.660;2023-08-07T07:13:24;96850.19;;;18.55;62.30
71915;BME280;60387;49.994;14.660;2023-08-07T07:15:57;96869.16;;;18.67;62.34
71915;BME280;60387;49.994;14.660;2023-08-07T07:18:30;96860.50;;;18.65;62.17
71915;BME280;60387;49.994;14.660;2023-08-07T07:21:03;96873.97;;;18.77;61.95
71915;BME280;60387;49.994;14.660;2023-08-07T07:23:40;96882.25;;;18.80;61.79
71915;BME280;60387;49.994;14.660;2023-08-07T07:26:13;96881.06;;;18.81;61.96
71915;BME280;60387;49.994;14.660;2023-08-07T07:28:46;96893.22;;;18.80;61.83
71915;BME280;60387;49.994;14.660;2023-08-07T07:31:19;96897.09;;;18.76;62.01
71915;BME280;60387;49.994;14.660;2023-08-07T07:33:53;96885.69;;;18.74;61.97
71915;BME280;60387;49.994;14.660;2023-08-07T07:36:26;96901.00;;;18.75;62.08
71915;BME280;60387;49.994;14.660;2023-08-07T07:38:59;96913.91;;;18.74;61.84
71915;BME280;60387;49.994;14.660;2023-08-07T07:41:33;96914.72;;;18.75;61.74
71915;BME280;60387;49.994;14.660;2023-08-07T07:44:06;96913.50;;;18.72;62.08
71915;BME280;60387;49.994;14.660;2023-08-07T07:46:40;96916.19;;;18.69;61.88
71915;BME280;60387;49.994;14.660;2023-08-07T07:49:13;96923.66;;;18.68;62.12
71915;BME280;60387;49.994;14.660;2023-08-07T07:51:46;96912.28;;;18.70;62.39
71915;BME280;60387;49.994;14.660;2023-08-07T07:54:20;96927.63;;;18.74;62.26
71915;BME280;60387;49.994;14.660;2023-08-07T07:56:54;96933.25;;;18.85;62.62
71915;BME280;60387;49.994;14.660;2023-08-07T07:59:27;96932.94;;;18.90;62.36
71915;BME280;60387;49.994;14.660;2023-08-07T08:02:00;96929.84;;;18.95;62.23
71915;BME280;60387;49.994;14.660;2023-08-07T08:04:33;96925.13;;;18.92;61.90
71915;BME280;60387;49.994;14.660;2023-08-07T08:07:07;96937.72;;;18.96;61.90
71915;BME280;60387;49.994;14.660;2023-08-07T08:09:40;96938.56;;;19.00;61.86
71915;BME280;60387;49.994;14.660;2023-08-07T08:12:13;96931.97;;;19.05;62.08
71915;BME280;60387;49.994;14.660;2023-08-07T08:14:47;96930.03;;;19.09;62.15
71915;BME280;60387;49.994;14.660;2023-08-07T08:17:20;96940.00;;;19.20;62.27
71915;BME280;60387;49.994;14.660;2023-08-07T08:19:53;96935.50;;;19.38;62.32
71915;BME280;60387;49.994;14.660;2023-08-07T08:22:26;96950.22;;;19.60;62.31
71915;BME280;60387;49.994;14.660;2023-08-07T08:25:00;96953.22;;;19.84;62.26
71915;BME280;60387;49.994;14.660;2023-08-07T08:27:33;96940.41;;;20.02;61.69
71915;BME280;60387;49.994;14.660;2023-08-07T08:30:07;96955.13;;;20.23;61.23
71915;BME280;60387;49.994;14.660;2023-08-07T08:32:40;96949.78;;;20.44;60.99
71915;BME280;60387;49.994;14.660;2023-08-07T08:35:13;96962.94;;;20.68;60.56
71915;BME280;60387;49.994;14.660;2023-08-07T08:37:47;96956.34;;;20.87;60.02
71915;BME280;60387;49.994;14.660;2023-08-07T08:40:20;96964.34;;;21.06;58.91
71915;BME280;60387;49.994;14.660;2023-08-07T08:42:55;96965.94;;;21.14;58.45
71915;BME280;60387;49.994;14.660;2023-08-07T08:45:30;96963.56;;;21.09;57.79
71915;BME280;60387;49.994;14.660;2023-08-07T08:48:05;96963.13;;;21.03;57.62
71915;BME280;60387;49.994;14.660;2023-08-07T08:50:40;96963.88;;;20.93;57.88
71915;BME280;60387;49.994;14.660;2023-08-07T08:53:14;96968.91;;;20.81;56.89
71915;BME280;60387;49.994;14.660;2023-08-07T08:55:47;96975.53;;;20.73;56.53
71915;BME280;60387;49.994;14.660;2023-08-07T08:58:22;96983.31;;;20.60;57.16
71915;BME280;60387;49.994;14.660;2023-08-07T09:00:56;96989.56;;;20.57;57.57
71915;BME280;60387;49.994;14.660;2023-08-07T09:03:29;96997.34;;;20.41;57.53
71915;BME280;60387;49.994;14.660;2023-08-07T09:06:03;96993.00;;;20.37;57.78
71915;BME280;60387;49.994;14.660;2023-08-07T09:08:38;97004.31;;;20.28;57.91
71915;BME280;60387;49.994;14.660;2023-08-07T09:11:13;97010.91;;;20.20;58.23
71915;BME280;60387;49.994;14.660;2023-08-07T09:13:48;97008.97;;;20.21;58.33
71915;BME280;60387;49.994;14.660;2023-08-07T09:16:22;97017.25;;;20.24;58.99
71915;BME280;60387;49.994;14.660;2023-08-07T09:18:56;97005.84;;;20.26;59.22
71915;BME280;60387;49.994;14.660;2023-08-07T09:21:29;97024.50;;;20.50;58.88
71915;BME280;60387;49.994;14.660;2023-08-07T09:24:03;97020.31;;;20.66;58.60
71915;BME280;60387;49.994;14.660;2023-08-07T09:26:36;97024.81;;;20.88;58.16
71915;BME280;60387;49.994;14.660;2023-08-07T09:29:10;97031.22;;;21.06;57.97
71915;BME280;60387;49.994;14.660;2023-08-07T09:31:43;97034.84;;;21.24;57.51
71915;BME280;60387;49.994;14.660;2023-08-07T09:34:20;97036.88;;;21.41;56.87
71915;BME280;60387;49.994;14.660;2023-08-07T09:36:53;97032.63;;;21.54;56.10
71915;BME280;60387;49.994;14.660;2023-08-07T09:39:27;97028.75;;;21.66;56.13
71915;BME280;60387;49.994;14.660;2023-08-07T09:42:00;97040.19;;;21.75;56.37
71915;BME280;60387;49.994;14.660;2023-08-07T09:44:37;97041.81;;;21.83;55.95
71915;BME280;60387;49.994;14.660;2023-08-07T09:47:14;97051.69;;;21.94;55.64
71915;BME280;60387;49.994;14.660;2023-08-07T09:49:48;97044.59;;;22.07;54.91
71915;BME280;60387;49.994;14.660;2023-08-07T09:52:21;97036.75;;;22.20;54.59
71915;BME280;60387;49.994;14.660;2023-08-07T09:54:57;97047.41;;;22.28;53.31
71915;BME280;60387;49.994;14.660;2023-08-07T09:57:30;97054.94;;;22.42;53.83
71915;BME280;60387;49.994;14.660;2023-08-07T10:00:07;97048.97;;;22.36;52.06
71915;BME280;60387;49.994;14.660;2023-08-07T10:02:42;97065.13;;;22.31;52.76
71915;BME280;60387;49.994;14.660;2023-08-07T10:05:16;97066.31;;;22.30;53.23
71915;BME280;60387;49.994;14.660;2023-08-07T10:07:50;97075.00;;;22.28;52.90
71915;BME280;60387;49.994;14.660;2023-08-07T10:10:24;97051.75;;;22.33;52.42
71915;BME280;60387;49.994;14.660;2023-08-07T10:13:00;97070.31;;;22.46;52.65
71915;BME280;60387;49.994;14.660;2023-08-07T10:15:33;97073.06;;;22.53;52.32
71915;BME280;60387;49.994;14.660;2023-08-07T10:18:07;97076.22;;;22.48;51.21
71915;BME280;60387;49.994;14.660;2023-08-07T10:20:41;97077.38;;;22.40;50.87
71915;BME280;60387;49.994;14.660;2023-08-07T10:23:15;97075.38;;;22.23;51.25
71915;BME280;60387;49.994;14.660;2023-08-07T10:25:50;97068.25;;;22.08;50.54
71915;BME280;60387;49.994;14.660;2023-08-07T10:28:24;97078.47;;;21.97;51.37
71915;BME280;60387;49.994;14.660;2023-08-07T10:30:59;97095.34;;;21.85;51.41
71915;BME280;60387;49.994;14.660;2023-08-07T10:33:33;97104.38;;;21.72;51.27
71915;BME280;60387;49.994;14.660;2023-08-07T10:36:10;97100.34;;;21.55;52.75
71915;BME280;60387;49.994;14.660;2023-08-07T10:38:43;97101.88;;;21.46;53.85
71915;BME280;60387;49.994;14.660;2023-08-07T10:41:18;97105.41;;;21.46;54.48
71915;BME280;60387;49.994;14.660;2023-08-07T10:43:51;97112.94;;;21.56;54.90
71915;BME280;60387;49.994;14.660;2023-08-07T10:46:24;97111.47;;;21.69;55.12
71915;BME280;60387;49.994;14.660;2023-08-07T10:48:58;97105.25;;;21.93;55.39
71915;BME280;60387;49.994;14.660;2023-08-07T10:51:32;97100.56;;;22.15;55.18
71915;BME280;60387;49.994;14.660;2023-08-07T10:54:05;97117.19;;;22.39;54.65
71915;BME280;60387;49.994;14.660;2023-08-07T10:56:38;97100.66;;;22.53;53.64
71915;BME280;60387;49.994;14.660;2023-08-07T10:59:12;97112.53;;;22.68;53.83
71915;BME280;60387;49.994;14.660;2023-08-07T11:01:51;97104.63;;;22.80;51.56
71915;BME280;60387;49.994;14.660;2023-08-07T11:04:24;97106.59;;;22.90;52.89
71915;BME280;60387;49.994;14.660;2023-08-07T11:06:58;97091.22;;;22.93;52.76
71915;BME280;60387;49.994;14.660;2023-08-07T11:09:33;97091.19;;;23.07;52.25
71915;BME280;60387;49.994;14.660;2023-08-07T11:12:06;97104.19;;;23.13;52.62
71915;BME280;60387;49.994;14.660;2023-08-07T11:14:40;97104.59;;;23.08;50.86
71915;BME280;60387;49.994;14.660;2023-08-07T11:17:14;97097.91;;;23.02;49.60
71915;BME280;60387;49.994;14.660;2023-08-07T11:19:47;97094.75;;;23.00;50.78
71915;BME280;60387;49.994;14.660;2023-08-07T11:22:20;97109.34;;;23.15;50.88
71915;BME280;60387;49.994;14.660;2023-08-07T11:24:54;97105.38;;;23.33;50.83
71915;BME280;60387;49.994;14.660;2023-08-07T11:27:27;97095.06;;;23.48;50.14
71915;BME280;60387;49.994;14.660;2023-08-07T11:30:00;97098.16;;;23.74;50.27
71915;BME280;60387;49.994;14.660;2023-08-07T11:32:34;97094.16;;;23.82;48.47
71915;BME280;60387;49.994;14.660;2023-08-07T11:35:07;97096.50;;;23.83;47.79
71915;BME280;60387;49.994;14.660;2023-08-07T11:37:47;97089.03;;;23.77;47.90
71915;BME280;60387;49.994;14.660;2023-08-07T11:40:20;97091.00;;;23.73;49.37
71915;BME280;60387;49.994;14.660;2023-08-07T11:42:54;97087.84;;;23.74;47.04
71915;BME280;60387;49.994;14.660;2023-08-07T11:45:27;97083.97;;;23.65;46.76
71915;BME280;60387;49.994;14.660;2023-08-07T11:48:01;97086.78;;;23.51;45.91
71915;BME280;60387;49.994;14.660;2023-08-07T11:50:35;97091.91;;;23.49;46.89
71915;BME280;60387;49.994;14.660;2023-08-07T11:53:08;97091.94;;;23.39;46.84
71915;BME280;60387;49.994;14.660;2023-08-07T11:55:52;97097.47;;;23.39;47.29
71915;BME280;60387;49.994;14.660;2023-08-07T11:58:47;97103.00;;;23.28;45.88
71915;BME280;60387;49.994;14.660;2023-08-07T12:01:24;97110.53;;;23.24;46.14
71915;BME280;60387;49.994;14.660;2023-08-07T12:06:52;97099.84;;;23.33;47.13
71915;BME280;60387;49.994;14.660;2023-08-07T12:09:26;97105.75;;;23.46;45.91
71915;BME280;60387;49.994;14.660;2023-08-07T12:11:59;97114.41;;;23.58;45.78
71915;BME280;60387;49.994;14.660;2023-08-07T12:14:32;97120.31;;;23.63;45.08
71915;BME280;60387;49.994;14.660;2023-08-07T12:17:09;97129.81;;;23.59;44.09
71915;BME280;60387;49.994;14.660;2023-08-07T12:19:42;97138.09;;;23.59;44.55
71915;BME280;60387;49.994;14.660;2023-08-07T12:22:19;97127.41;;;23.61;45.53
71915;BME280;60387;49.994;14.660;2023-08-07T12:24:52;97132.09;;;23.78;45.77
71915;BME280;60387;49.994;14.660;2023-08-07T12:27:25;97131.25;;;24.02;44.30
71915;BME280;60387;49.994;14.660;2023-08-07T12:29:59;97146.19;;;24.15;42.43
71915;BME280;60387;49.994;14.660;2023-08-07T12:32:32;97146.97;;;24.19;42.36
71915;BME280;60387;49.994;14.660;2023-08-07T12:35:06;97138.34;;;24.10;42.67
71915;BME280;60387;49.994;14.660;2023-08-07T12:37:39;97149.78;;;24.12;42.95
71915;BME280;60387;49.994;14.660;2023-08-07T12:40:12;97143.06;;;24.09;43.39
71915;BME280;60387;49.994;14.660;2023-08-07T12:42:45;97142.28;;;24.09;43.53
71915;BME280;60387;49.994;14.660;2023-08-07T12:45:19;97152.53;;;24.15;44.41
71915;BME280;60387;49.994;14.660;2023-08-07T12:47:52;97154.84;;;24.24;43.37
71915;BME280;60387;49.994;14.660;2023-08-07T12:50:26;97158.06;;;24.15;41.98
71915;BME280;60387;49.994;14.660;2023-08-07T12:52:59;97154.59;;;24.01;41.88
71915;BME280;60387;49.994;14.660;2023-08-07T12:55:32;97168.44;;;23.83;42.61
71915;BME280;60387;49.994;14.660;2023-08-07T12:58:06;97162.16;;;23.65;43.10
71915;BME280;60387;49.994;14.660;2023-08-07T13:00:39;97162.97;;;23.62;43.22
71915;BME280;60387;49.994;14.660;2023-08-07T13:03:12;97172.47;;;23.54;43.19
71915;BME280;60387;49.994;14.660;2023-08-07T13:05:45;97174.06;;;23.59;43.81
71915;BME280;60387;49.994;14.660;2023-08-07T13:08:19;97163.72;;;23.77;43.53
71915;BME280;60387;49.994;14.660;2023-08-07T13:10:52;97159.31;;;23.97;42.58
71915;BME280;60387;49.994;14.660;2023-08-07T13:13:25;97168.31;;;24.18;43.43
71915;BME280;60387;49.994;14.660;2023-08-07T13:15:58;97173.00;;;24.35;41.52
71915;BME280;60387;49.994;14.660;2023-08-07T13:18:32;97170.94;;;24.50;41.61
71915;BME280;60387;49.994;14.660;2023-08-07T13:21:05;97176.06;;;24.58;41.53
71915;BME280;60387;49.994;14.660;2023-08-07T13:23:38;97181.50;;;24.76;41.44
71915;BME280;60387;49.994;14.660;2023-08-07T13:26:11;97175.09;;;24.82;41.35
71915;BME280;60387;49.994;14.660;2023-08-07T13:28:45;97179.84;;;24.82;40.53
71915;BME280;60387;49.994;14.660;2023-08-07T13:31:18;97174.75;;;24.77;40.48
71915;BME280;60387;49.994;14.660;2023-08-07T13:33:51;97183.88;;;24.70;41.00